sensor_id;sensor_type;location;lat;lon;timestamp;P1;durP1;ratioP1;P2;durP2;ratioP2
64873;SDS011;51367;45.204;38.576;2023-12-20T00:01:54;12.65;;;10.70;;
64873;SDS011;51367;45.204;38.576;2023-12-20T00:04:20;21.38;;;12.93;;
64873;SDS011;51367;45.204;38.576;2023-12-20T00:06:46;4.72;;;4.30;;
64873;SDS011;51367;45.204;38.576;2023-12-20T00:09:12;5.13;;;3.90;;
64873;SDS011;51367;45.204;38.576;2023-12-20T00:11:38;4.88;;;4.45;;
64873;SDS011;51367;45.204;38.576;2023-12-20T00:14:04;67.03;;;26.27;;
64873;SDS011;51367;45.204;38.576;2023-12-20T00:16:30;56.70;;;26.63;;
64873;SDS011;51367;45.204;38.576;2023-12-20T00:18:57;17.85;;;14.13;;
64873;SDS011;51367;45.204;38.576;2023-12-20T00:21:23;89.30;;;33.97;;
64873;SDS011;51367;45.204;38.576;2023-12-20T00:23:49;75.25;;;32.58;;
64873;SDS011;51367;45.204;38.576;2023-12-20T00:26:15;122.22;;;42.83;;
64873;SDS011;51367;45.204;38.576;2023-12-20T00:28:41;101.65;;;38.42;;
64873;SDS011;51367;45.204;38.576;2023-12-20T00:31:08;15.82;;;10.55;;
64873;SDS011;51367;45.204;38.576;2023-12-20T00:33:34;8.27;;;4.80;;
64873;SDS011;51367;45.204;38.576;2023-12-20T00:36:00;12.95;;;6.22;;
64873;SDS011;51367;45.204;38.576;2023-12-20T00:38:26;21.35;;;8.77;;
64873;SDS011;51367;45.204;38.576;2023-12-20T00:40:52;17.00;;;15.32;;
64873;SDS011;51367;45.204;38.576;2023-12-20T00:43:17;63.97;;;37.20;;
64873;SDS011;51367;45.204;38.576;2023-12-20T00:45:43;210.35;;;76.45;;
64873;SDS011;51367;45.204;38.576;2023-12-20T00:48:09;104.65;;;46.67;;
64873;SDS011;51367;45.204;38.576;2023-12-20T00:50:35;94.28;;;43.17;;
64873;SDS011;51367;45.204;38.576;2023-12-20T00:53:01;89.47;;;34.15;;
64873;SDS011;51367;45.204;38.576;2023-12-20T00:55:27;13.77;;;6.63;;
64873;SDS011;51367;45.204;38.576;2023-12-20T00:57:53;20.35;;;18.05;;
64873;SDS011;51367;45.204;38.576;2023-12-20T01:00:19;21.67;;;12.85;;
64873;SDS011;51367;45.204;38.576;2023-12-20T01:02:45;10.70;;;9.50;;
64873;SDS011;51367;45.204;38.576;2023-12-20T01:05:14;31.63;;;27.42;;
64873;SDS011;51367;45.204;38.576;2023-12-20T01:07:40;96.28;;;47.83;;
64873;SDS011;51367;45.204;38.576;2023-12-20T01:10:06;112.90;;;57.00;;
64873;SDS011;51367;45.204;38.576;2023-12-20T01:12:32;76.32;;;45.72;;
64873;SDS011;51367;45.204;38.576;2023-12-20T01:14:58;151.45;;;61.85;;
64873;SDS011;51367;45.204;38.576;2023-12-20T01:17:24;9.80;;;8.85;;
64873;SDS011;51367;45.204;38.576;2023-12-20T01:19:50;39.63;;;27.95;;
64873;SDS011;51367;45.204;38.576;2023-12-20T01:22:16;35.42;;;29.70;;
64873;SDS011;51367;45.204;38.576;2023-12-20T01:24:42;34.47;;;24.83;;
64873;SDS011;51367;45.204;38.576;2023-12-20T01:27:08;41.53;;;37.10;;
64873;SDS011;51367;45.204;38.576;2023-12-20T01:29:34;201.00;;;76.53;;
64873;SDS011;51367;45.204;38.576;2023-12-20T01:31:59;14.15;;;12.93;;
64873;SDS011;51367;45.204;38.576;2023-12-20T01:34:25;18.08;;;16.83;;
64873;SDS011;51367;45.204;38.576;2023-12-20T01:36:51;22.80;;;21.02;;
64873;SDS011;51367;45.204;38.576;2023-12-20T01:39:17;15.63;;;14.63;;
64873;SDS011;51367;45.204;38.576;2023-12-20T01:41:43;19.15;;;17.77;;
64873;SDS011;51367;45.204;38.576;2023-12-20T01:44:10;36.03;;;33.38;;
64873;SDS011;51367;45.204;38.576;2023-12-20T01:46:36;43.63;;;39.80;;
64873;SDS011;51367;45.204;38.576;2023-12-20T01:49:02;38.67;;;35.03;;
64873;SDS011;51367;45.204;38.576;2023-12-20T01:51:28;55.67;;;47.72;;
64873;SDS011;51367;45.204;38.576;2023-12-20T01:53:55;29.48;;;24.55;;
64873;SDS011;51367;45.204;38.576;2023-12-20T01:56:24;57.13;;;51.15;;
64873;SDS011;51367;45.204;38.576;2023-12-20T01:58:51;65.82;;;49.75;;
64873;SDS011;51367;45.204;38.576;2023-12-20T02:01:17;46.25;;;39.92;;
64873;SDS011;51367;45.204;38.576;2023-12-20T02:03:43;52.42;;;46.38;;
64873;SDS011;51367;45.204;38.576;2023-12-20T02:06:10;47.55;;;43.33;;
64873;SDS011;51367;45.204;38.576;2023-12-20T02:08:37;73.97;;;47.65;;
64873;SDS011;51367;45.204;38.576;2023-12-20T02:11:03;33.50;;;30.92;;
64873;SDS011;51367;45.204;38.576;2023-12-20T02:13:30;39.42;;;36.00;;
64873;SDS011;51367;45.204;38.576;2023-12-20T02:15:56;44.97;;;40.38;;
64873;SDS011;51367;45.204;38.576;2023-12-20T02:18:22;50.72;;;45.95;;
64873;SDS011;51367;45.204;38.576;2023-12-20T02:20:49;49.55;;;44.83;;
64873;SDS011;51367;45.204;38.576;2023-12-20T02:23:14;60.25;;;48.65;;
64873;SDS011;51367;45.204;38.576;2023-12-20T02:25:40;71.95;;;52.17;;
64873;SDS011;51367;45.204;38.576;2023-12-20T02:28:06;79.22;;;56.20;;
64873;SDS011;51367;45.204;38.576;2023-12-20T02:30:33;77.32;;;50.65;;
64873;SDS011;51367;45.204;38.576;2023-12-20T02:33:01;55.78;;;47.88;;
64873;SDS011;51367;45.204;38.576;2023-12-20T02:35:33;52.28;;;46.72;;
64873;SDS011;51367;45.204;38.576;2023-12-20T02:37:59;39.15;;;33.42;;
64873;SDS011;51367;45.204;38.576;2023-12-20T02:40:25;118.85;;;64.25;;
64873;SDS011;51367;45.204;38.576;2023-12-20T02:42:51;96.63;;;54.10;;
64873;SDS011;51367;45.204;38.576;2023-12-20T02:45:17;77.00;;;55.30;;
64873;SDS011;51367;45.204;38.576;2023-12-20T02:47:43;75.75;;;48.20;;
64873;SDS011;51367;45.204;38.576;2023-12-20T02:50:09;50.38;;;44.45;;
64873;SDS011;51367;45.204;38.576;2023-12-20T02:52:35;83.55;;;53.70;;
64873;SDS011;51367;45.204;38.576;2023-12-20T02:55:01;62.95;;;49.38;;
64873;SDS011;51367;45.204;38.576;2023-12-20T02:57:26;55.72;;;47.78;;
64873;SDS011;51367;45.204;38.576;2023-12-20T02:59:52;54.42;;;37.17;;
64873;SDS011;51367;45.204;38.576;2023-12-20T03:02:18;34.13;;;30.60;;
64873;SDS011;51367;45.204;38.576;2023-12-20T03:04:44;29.33;;;27.02;;
64873;SDS011;51367;45.204;38.576;2023-12-20T03:07:10;36.35;;;32.92;;
64873;SDS011;51367;45.204;38.576;2023-12-20T03:09:37;44.53;;;40.53;;
64873;SDS011;51367;45.204;38.576;2023-12-20T03:12:03;32.90;;;29.75;;
64873;SDS011;51367;45.204;38.576;2023-12-20T03:14:29;26.20;;;24.30;;
64873;SDS011;51367;45.204;38.576;2023-12-20T03:16:55;40.33;;;36.35;;
64873;SDS011;51367;45.204;38.576;2023-12-20T03:19:21;29.25;;;27.25;;
64873;SDS011;51367;45.204;38.576;2023-12-20T03:21:47;40.70;;;37.35;;
64873;SDS011;51367;45.204;38.576;2023-12-20T03:24:13;66.45;;;48.30;;
64873;SDS011;51367;45.204;38.576;2023-12-20T03:26:39;44.35;;;40.25;;
64873;SDS011;51367;45.204;38.576;2023-12-20T03:29:05;61.97;;;49.53;;
64873;SDS011;51367;45.204;38.576;2023-12-20T03:31:31;47.40;;;42.75;;
64873;SDS011;51367;45.204;38.576;2023-12-20T03:33:57;41.47;;;38.33;;
64873;SDS011;51367;45.204;38.576;2023-12-20T03:36:23;49.53;;;44.97;;
64873;SDS011;51367;45.204;38.576;2023-12-20T03:38:49;46.50;;;41.95;;
64873;SDS011;51367;45.204;38.576;2023-12-20T03:41:15;67.88;;;54.90;;
64873;SDS011;51367;45.204;38.576;2023-12-20T03:43:41;79.60;;;51.67;;
64873;SDS011;51367;45.204;38.576;2023-12-20T03:46:08;55.30;;;48.67;;
64873;SDS011;51367;45.204;38.576;2023-12-20T03:48:34;64.38;;;46.63;;
64873;SDS011;51367;45.204;38.576;2023-12-20T03:51:00;116.47;;;56.92;;
64873;SDS011;51367;45.204;38.576;2023-12-20T03:53:26;59.67;;;50.42;;
64873;SDS011;51367;45.204;38.576;2023-12-20T03:55:52;94.30;;;55.90;;
64873;SDS011;51367;45.204;38.576;2023-12-20T03:58:18;133.25;;;63.88;;
64873;SDS011;51367;45.204;38.576;2023-12-20T04:00:44;59.65;;;50.75;;
64873;SDS011;51367;45.204;38.576;2023-12-20T04:03:10;86.90;;;51.53;;
64873;SDS011;51367;45.204;38.576;2023-12-20T04:05:39;38.40;;;35.50;;
64873;SDS011;51367;45.204;38.576;2023-12-20T04:08:06;33.30;;;30.83;;
64873;SDS011;51367;45.204;38.576;2023-12-20T04:10:32;41.92;;;38.00;;
64873;SDS011;51367;45.204;38.576;2023-12-20T04:12:58;49.50;;;40.30;;
64873;SDS011;51367;45.204;38.576;2023-12-20T04:15:24;30.17;;;27.30;;
64873;SDS011;51367;45.204;38.576;2023-12-20T04:17:50;44.05;;;39.03;;
64873;SDS011;51367;45.204;38.576;2023-12-20T04:20:16;38.83;;;34.95;;
64873;SDS011;51367;45.204;38.576;2023-12-20T04:22:42;45.13;;;40.97;;
64873;SDS011;51367;45.204;38.576;2023-12-20T04:25:08;32.92;;;30.50;;
64873;SDS011;51367;45.204;38.576;2023-12-20T04:27:35;41.42;;;34.95;;
64873;SDS011;51367;45.204;38.576;2023-12-20T04:30:00;34.20;;;31.83;;
64873;SDS011;51367;45.204;38.576;2023-12-20T04:32:26;44.13;;;40.80;;
64873;SDS011;51367;45.204;38.576;2023-12-20T04:34:52;33.15;;;30.60;;
64873;SDS011;51367;45.204;38.576;2023-12-20T04:37:18;43.13;;;39.25;;
64873;SDS011;51367;45.204;38.576;2023-12-20T04:39:44;36.70;;;33.85;;
64873;SDS011;51367;45.204;38.576;2023-12-20T04:42:10;56.92;;;39.33;;
64873;SDS011;51367;45.204;38.576;2023-12-20T04:44:36;42.13;;;34.75;;
64873;SDS011;51367;45.204;38.576;2023-12-20T04:47:02;29.48;;;27.58;;
64873;SDS011;51367;45.204;38.576;2023-12-20T04:49:28;46.80;;;42.03;;
64873;SDS011;51367;45.204;38.576;2023-12-20T04:51:54;51.30;;;46.20;;
64873;SDS011;51367;45.204;38.576;2023-12-20T04:54:21;50.67;;;45.92;;
64873;SDS011;51367;45.204;38.576;2023-12-20T04:56:47;55.00;;;49.30;;
64873;SDS011;51367;45.204;38.576;2023-12-20T04:59:13;54.88;;;49.15;;
64873;SDS011;51367;45.204;38.576;2023-12-20T05:01:39;83.72;;;56.15;;
64873;SDS011;51367;45.204;38.576;2023-12-20T05:04:04;57.95;;;51.53;;
64873;SDS011;51367;45.204;38.576;2023-12-20T05:06:30;84.00;;;56.88;;
64873;SDS011;51367;45.204;38.576;2023-12-20T05:08:56;79.45;;;53.78;;
64873;SDS011;51367;45.204;38.576;2023-12-20T05:11:22;122.38;;;60.83;;
64873;SDS011;51367;45.204;38.576;2023-12-20T05:13:48;107.90;;;61.33;;
64873;SDS011;51367;45.204;38.576;2023-12-20T05:16:14;130.65;;;64.40;;
64873;SDS011;51367;45.204;38.576;2023-12-20T05:18:43;102.13;;;59.60;;
64873;SDS011;51367;45.204;38.576;2023-12-20T05:21:10;98.05;;;60.10;;
64873;SDS011;51367;45.204;38.576;2023-12-20T05:23:36;111.85;;;63.42;;
64873;SDS011;51367;45.204;38.576;2023-12-20T05:26:02;196.32;;;73.90;;
64873;SDS011;51367;45.204;38.576;2023-12-20T05:28:28;172.75;;;71.80;;
64873;SDS011;51367;45.204;38.576;2023-12-20T05:30:54;224.70;;;79.47;;
64873;SDS011;51367;45.204;38.576;2023-12-20T05:33:19;209.35;;;77.10;;
64873;SDS011;51367;45.204;38.576;2023-12-20T05:35:46;137.27;;;68.28;;
64873;SDS011;51367;45.204;38.576;2023-12-20T05:38:11;137.90;;;68.70;;
64873;SDS011;51367;45.204;38.576;2023-12-20T05:40:38;134.05;;;65.28;;
64873;SDS011;51367;45.204;38.576;2023-12-20T05:43:04;101.78;;;61.55;;
64873;SDS011;51367;45.204;38.576;2023-12-20T05:45:29;126.32;;;65.38;;
64873;SDS011;51367;45.204;38.576;2023-12-20T05:47:55;118.60;;;60.63;;
64873;SDS011;51367;45.204;38.576;2023-12-20T05:50:21;99.10;;;62.35;;
64873;SDS011;51367;45.204;38.576;2023-12-20T05:52:47;93.93;;;60.00;;
64873;SDS011;51367;45.204;38.576;2023-12-20T05:55:13;86.05;;;57.95;;
64873;SDS011;51367;45.204;38.576;2023-12-20T05:57:44;95.70;;;61.75;;
64873;SDS011;51367;45.204;38.576;2023-12-20T06:00:10;128.23;;;64.97;;
64873;SDS011;51367;45.204;38.576;2023-12-20T06:02:40;109.63;;;63.05;;
64873;SDS011;51367;45.204;38.576;2023-12-20T06:05:06;84.35;;;59.33;;
64873;SDS011;51367;45.204;38.576;2023-12-20T06:07:32;68.63;;;45.53;;
64873;SDS011;51367;45.204;38.576;2023-12-20T06:09:58;112.05;;;56.40;;
64873;SDS011;51367;45.204;38.576;2023-12-20T06:12:24;94.43;;;56.50;;
64873;SDS011;51367;45.204;38.576;2023-12-20T06:14:52;87.70;;;56.45;;
64873;SDS011;51367;45.204;38.576;2023-12-20T06:17:18;67.97;;;50.90;;
64873;SDS011;51367;45.204;38.576;2023-12-20T06:19:44;60.30;;;52.95;;
64873;SDS011;51367;45.204;38.576;2023-12-20T06:22:14;51.40;;;40.08;;
64873;SDS011;51367;45.204;38.576;2023-12-20T06:24:40;44.28;;;40.33;;
64873;SDS011;51367;45.204;38.576;2023-12-20T06:27:06;45.33;;;40.63;;
64873;SDS011;51367;45.204;38.576;2023-12-20T06:29:32;39.63;;;32.88;;
64873;SDS011;51367;45.204;38.576;2023-12-20T06:32:00;18.73;;;17.33;;
64873;SDS011;51367;45.204;38.576;2023-12-20T06:34:26;6.20;;;5.90;;
64873;SDS011;51367;45.204;38.576;2023-12-20T06:36:53;5.60;;;5.20;;
64873;SDS011;51367;45.204;38.576;2023-12-20T06:39:19;5.40;;;3.75;;
64873;SDS011;51367;45.204;38.576;2023-12-20T06:41:45;6.45;;;4.25;;
64873;SDS011;51367;45.204;38.576;2023-12-20T06:44:11;3.45;;;3.20;;
64873;SDS011;51367;45.204;38.576;2023-12-20T06:46:37;1.85;;;1.27;;
64873;SDS011;51367;45.204;38.576;2023-12-20T06:49:03;1.58;;;1.48;;
64873;SDS011;51367;45.204;38.576;2023-12-20T06:51:28;0.88;;;0.88;;
64873;SDS011;51367;45.204;38.576;2023-12-20T06:53:56;1.52;;;0.95;;
64873;SDS011;51367;45.204;38.576;2023-12-20T06:56:22;1.65;;;1.40;;
64873;SDS011;51367;45.204;38.576;2023-12-20T06:58:48;1.25;;;1.13;;
64873;SDS011;51367;45.204;38.576;2023-12-20T07:01:14;1.75;;;0.88;;
64873;SDS011;51367;45.204;38.576;2023-12-20T07:03:41;1.02;;;0.93;;
64873;SDS011;51367;45.204;38.576;2023-12-20T07:06:08;0.82;;;0.82;;
64873;SDS011;51367;45.204;38.576;2023-12-20T07:08:37;7.07;;;1.33;;
64873;SDS011;51367;45.204;38.576;2023-12-20T07:11:03;0.85;;;0.70;;
64873;SDS011;51367;45.204;38.576;2023-12-20T07:13:29;1.75;;;1.33;;
64873;SDS011;51367;45.204;38.576;2023-12-20T07:15:55;1.40;;;1.27;;
64873;SDS011;51367;45.204;38.576;2023-12-20T07:18:21;0.68;;;0.68;;
64873;SDS011;51367;45.204;38.576;2023-12-20T07:20:47;1.20;;;0.73;;
64873;SDS011;51367;45.204;38.576;2023-12-20T07:23:13;1.50;;;1.10;;
64873;SDS011;51367;45.204;38.576;2023-12-20T07:25:39;2.00;;;0.98;;
64873;SDS011;51367;45.204;38.576;2023-12-20T07:28:05;3.90;;;1.10;;
64873;SDS011;51367;45.204;38.576;2023-12-20T07:30:31;2.22;;;1.20;;
64873;SDS011;51367;45.204;38.576;2023-12-20T07:32:57;1.25;;;1.10;;
64873;SDS011;51367;45.204;38.576;2023-12-20T07:35:23;0.70;;;0.70;;
64873;SDS011;51367;45.204;38.576;2023-12-20T07:37:50;0.60;;;0.60;;
64873;SDS011;51367;45.204;38.576;2023-12-20T07:40:16;1.52;;;0.88;;
64873;SDS011;51367;45.204;38.576;2023-12-20T07:42:42;0.77;;;0.75;;
64873;SDS011;51367;45.204;38.576;2023-12-20T07:45:08;15.90;;;0.95;;
64873;SDS011;51367;45.204;38.576;2023-12-20T07:47:36;1.45;;;1.00;;
64873;SDS011;51367;45.204;38.576;2023-12-20T07:50:02;1.35;;;1.10;;
64873;SDS011;51367;45.204;38.576;2023-12-20T07:52:28;1.42;;;0.90;;
64873;SDS011;51367;45.204;38.576;2023-12-20T07:54:55;1.00;;;0.90;;
64873;SDS011;51367;45.204;38.576;2023-12-20T07:57:21;3.75;;;0.80;;
64873;SDS011;51367;45.204;38.576;2023-12-20T07:59:47;0.75;;;0.75;;
64873;SDS011;51367;45.204;38.576;2023-12-20T08:02:13;0.75;;;0.75;;
64873;SDS011;51367;45.204;38.576;2023-12-20T08:04:39;1.00;;;0.90;;
64873;SDS011;51367;45.204;38.576;2023-12-20T08:07:06;7.03;;;1.08;;
64873;SDS011;51367;45.204;38.576;2023-12-20T08:09:32;0.55;;;0.55;;
64873;SDS011;51367;45.204;38.576;2023-12-20T08:11:59;4.32;;;0.75;;
64873;SDS011;51367;45.204;38.576;2023-12-20T08:14:25;0.85;;;0.50;;
64873;SDS011;51367;45.204;38.576;2023-12-20T08:16:51;1.08;;;0.95;;
64873;SDS011;51367;45.204;38.576;2023-12-20T08:19:17;2.95;;;0.80;;
64873;SDS011;51367;45.204;38.576;2023-12-20T08:21:43;0.70;;;0.70;;
64873;SDS011;51367;45.204;38.576;2023-12-20T08:24:09;0.57;;;0.57;;
64873;SDS011;51367;45.204;38.576;2023-12-20T08:26:35;1.65;;;0.60;;
64873;SDS011;51367;45.204;38.576;2023-12-20T08:29:01;0.60;;;0.60;;
64873;SDS011;51367;45.204;38.576;2023-12-20T08:31:27;0.52;;;0.52;;
64873;SDS011;51367;45.204;38.576;2023-12-20T08:33:53;0.70;;;0.70;;
64873;SDS011;51367;45.204;38.576;2023-12-20T08:36:19;0.68;;;0.68;;
64873;SDS011;51367;45.204;38.576;2023-12-20T08:38:47;0.50;;;0.50;;
64873;SDS011;51367;45.204;38.576;2023-12-20T08:41:13;0.70;;;0.70;;
64873;SDS011;51367;45.204;38.576;2023-12-20T08:43:39;0.80;;;0.80;;
64873;SDS011;51367;45.204;38.576;2023-12-20T08:46:05;0.50;;;0.50;;
64873;SDS011;51367;45.204;38.576;2023-12-20T08:48:31;0.63;;;0.63;;
64873;SDS011;51367;45.204;38.576;2023-12-20T08:50:57;1.17;;;1.17;;
64873;SDS011;51367;45.204;38.576;2023-12-20T08:53:23;0.57;;;0.57;;
64873;SDS011;51367;45.204;38.576;2023-12-20T08:55:50;0.65;;;0.65;;
64873;SDS011;51367;45.204;38.576;2023-12-20T08:58:16;2.35;;;1.13;;
64873;SDS011;51367;45.204;38.576;2023-12-20T09:00:42;0.95;;;0.95;;
64873;SDS011;51367;45.204;38.576;2023-12-20T09:03:08;1.58;;;1.48;;
64873;SDS011;51367;45.204;38.576;2023-12-20T09:05:34;3.03;;;2.83;;
64873;SDS011;51367;45.204;38.576;2023-12-20T09:08:00;1.45;;;1.35;;
64873;SDS011;51367;45.204;38.576;2023-12-20T09:10:26;1.40;;;1.30;;
64873;SDS011;51367;45.204;38.576;2023-12-20T09:12:52;2.05;;;1.60;;
64873;SDS011;51367;45.204;38.576;2023-12-20T09:15:25;3.40;;;1.85;;
64873;SDS011;51367;45.204;38.576;2023-12-20T09:17:52;2.08;;;1.98;;
64873;SDS011;51367;45.204;38.576;2023-12-20T09:20:19;1.15;;;1.05;;
64873;SDS011;51367;45.204;38.576;2023-12-20T09:22:45;1.70;;;1.42;;
64873;SDS011;51367;45.204;38.576;2023-12-20T09:25:11;3.88;;;3.58;;
64873;SDS011;51367;45.204;38.576;2023-12-20T09:27:39;4.68;;;4.35;;
64873;SDS011;51367;45.204;38.576;2023-12-20T09:30:05;1.95;;;1.58;;
64873;SDS011;51367;45.204;38.576;2023-12-20T09:32:31;1.13;;;1.13;;
64873;SDS011;51367;45.204;38.576;2023-12-20T09:34:57;2.40;;;2.28;;
64873;SDS011;51367;45.204;38.576;2023-12-20T09:37:27;4.63;;;4.43;;
64873;SDS011;51367;45.204;38.576;2023-12-20T09:39:53;22.25;;;20.60;;
64873;SDS011;51367;45.204;38.576;2023-12-20T09:42:56;9.18;;;8.68;;
64873;SDS011;51367;45.204;38.576;2023-12-20T09:45:12;29.83;;;25.58;;
64873;SDS011;51367;45.204;38.576;2023-12-20T09:47:40;19.77;;;18.17;;
64873;SDS011;51367;45.204;38.576;2023-12-20T09:50:08;8.90;;;8.10;;
64873;SDS011;51367;45.204;38.576;2023-12-20T09:52:35;7.35;;;6.88;;
64873;SDS011;51367;45.204;38.576;2023-12-20T09:55:03;6.68;;;6.22;;
64873;SDS011;51367;45.204;38.576;2023-12-20T09:57:31;6.32;;;5.93;;
64873;SDS011;51367;45.204;38.576;2023-12-20T09:59:58;7.75;;;7.35;;
64873;SDS011;51367;45.204;38.576;2023-12-20T10:02:24;10.27;;;9.20;;
64873;SDS011;51367;45.204;38.576;2023-12-20T10:04:55;5.53;;;5.05;;
64873;SDS011;51367;45.204;38.576;2023-12-20T10:07:21;2.33;;;2.13;;
64873;SDS011;51367;45.204;38.576;2023-12-20T10:09:51;1.67;;;1.58;;
64873;SDS011;51367;45.204;38.576;2023-12-20T10:12:21;1.40;;;1.30;;
64873;SDS011;51367;45.204;38.576;2023-12-20T10:14:47;4.68;;;2.35;;
64873;SDS011;51367;45.204;38.576;2023-12-20T10:17:13;2.97;;;2.78;;
64873;SDS011;51367;45.204;38.576;2023-12-20T10:19:39;4.07;;;3.85;;
64873;SDS011;51367;45.204;38.576;2023-12-20T10:22:05;3.33;;;3.13;;
64873;SDS011;51367;45.204;38.576;2023-12-20T10:24:31;4.90;;;4.63;;
64873;SDS011;51367;45.204;38.576;2023-12-20T10:29:33;2.20;;;2.10;;
64873;SDS011;51367;45.204;38.576;2023-12-20T10:32:21;3.97;;;3.72;;
64873;SDS011;51367;45.204;38.576;2023-12-20T10:34:52;4.40;;;4.18;;
64873;SDS011;51367;45.204;38.576;2023-12-20T10:37:19;41.70;;;27.88;;
64873;SDS011;51367;45.204;38.576;2023-12-20T10:39:52;5.95;;;5.38;;
64873;SDS011;51367;45.204;38.576;2023-12-20T10:42:25;2.08;;;0.88;;
64873;SDS011;51367;45.204;38.576;2023-12-20T10:44:52;2.20;;;1.67;;
64873;SDS011;51367;45.204;38.576;2023-12-20T10:47:19;0.73;;;0.73;;
64873;SDS011;51367;45.204;38.576;2023-12-20T10:49:46;2.08;;;1.98;;
64873;SDS011;51367;45.204;38.576;2023-12-20T10:52:13;0.55;;;0.55;;
64873;SDS011;51367;45.204;38.576;2023-12-20T10:54:42;0.85;;;0.85;;
64873;SDS011;51367;45.204;38.576;2023-12-20T10:57:08;0.52;;;0.52;;
64873;SDS011;51367;45.204;38.576;2023-12-20T10:59:36;3.08;;;2.28;;
64873;SDS011;51367;45.204;38.576;2023-12-20T11:02:03;0.65;;;0.65;;
64873;SDS011;51367;45.204;38.576;2023-12-20T11:04:53;0.68;;;0.68;;
64873;SDS011;51367;45.204;38.576;2023-12-20T11:07:45;1.70;;;0.43;;
64873;SDS011;51367;45.204;38.576;2023-12-20T11:10:20;2.25;;;1.05;;
64873;SDS011;51367;45.204;38.576;2023-12-20T11:15:17;4.43;;;1.40;;
64873;SDS011;51367;45.204;38.576;2023-12-20T11:17:45;0.70;;;0.60;;
64873;SDS011;51367;45.204;38.576;2023-12-20T11:20:14;36.28;;;7.28;;
64873;SDS011;51367;45.204;38.576;2023-12-20T11:22:40;0.82;;;0.70;;
64873;SDS011;51367;45.204;38.576;2023-12-20T11:25:17;2.22;;;2.03;;
64873;SDS011;51367;45.204;38.576;2023-12-20T11:27:44;1.38;;;0.75;;
64873;SDS011;51367;45.204;38.576;2023-12-20T11:30:37;2.30;;;0.60;;
64873;SDS011;51367;45.204;38.576;2023-12-20T11:33:07;0.30;;;0.30;;
64873;SDS011;51367;45.204;38.576;2023-12-20T11:35:34;0.98;;;0.98;;
64873;SDS011;51367;45.204;38.576;2023-12-20T11:38:02;1.42;;;1.33;;
64873;SDS011;51367;45.204;38.576;2023-12-20T11:40:28;1.15;;;1.15;;
64873;SDS011;51367;45.204;38.576;2023-12-20T11:42:53;2.60;;;1.08;;
64873;SDS011;51367;45.204;38.576;2023-12-20T11:45:20;2.15;;;0.98;;
64873;SDS011;51367;45.204;38.576;2023-12-20T11:47:50;0.70;;;0.70;;
64873;SDS011;51367;45.204;38.576;2023-12-20T11:50:17;0.75;;;0.50;;
64873;SDS011;51367;45.204;38.576;2023-12-20T11:52:43;0.60;;;0.60;;
64873;SDS011;51367;45.204;38.576;2023-12-20T11:55:09;1.73;;;1.20;;
64873;SDS011;51367;45.204;38.576;2023-12-20T11:57:35;0.95;;;0.73;;
64873;SDS011;51367;45.204;38.576;2023-12-20T12:00:02;0.32;;;0.30;;
64873;SDS011;51367;45.204;38.576;2023-12-20T12:02:37;0.50;;;0.50;;
64873;SDS011;51367;45.204;38.576;2023-12-20T12:05:03;0.85;;;0.65;;
64873;SDS011;51367;45.204;38.576;2023-12-20T12:07:31;0.40;;;0.40;;
64873;SDS011;51367;45.204;38.576;2023-12-20T12:09:57;0.30;;;0.30;;
64873;SDS011;51367;45.204;38.576;2023-12-20T12:12:23;1.42;;;0.75;;
64873;SDS011;51367;45.204;38.576;2023-12-20T12:14:52;0.63;;;0.63;;
64873;SDS011;51367;45.204;38.576;2023-12-20T12:17:20;0.50;;;0.50;;
64873;SDS011;51367;45.204;38.576;2023-12-20T12:19:45;1.88;;;0.68;;
64873;SDS011;51367;45.204;38.576;2023-12-20T12:22:12;0.32;;;0.32;;
64873;SDS011;51367;45.204;38.576;2023-12-20T12:24:39;0.75;;;0.55;;
64873;SDS011;51367;45.204;38.576;2023-12-20T12:27:06;0.73;;;0.73;;
64873;SDS011;51367;45.204;38.576;2023-12-20T12:29:33;0.73;;;0.50;;
64873;SDS011;51367;45.204;38.576;2023-12-20T12:32:00;0.40;;;0.40;;
64873;SDS011;51367;45.204;38.576;2023-12-20T12:34:29;0.30;;;0.30;;
64873;SDS011;51367;45.204;38.576;2023-12-20T12:36:55;0.50;;;0.50;;
64873;SDS011;51367;45.204;38.576;2023-12-20T12:39:23;0.30;;;0.30;;
64873;SDS011;51367;45.204;38.576;2023-12-20T12:41:53;0.47;;;0.47;;
64873;SDS011;51367;45.204;38.576;2023-12-20T12:44:19;6.10;;;0.70;;
64873;SDS011;51367;45.204;38.576;2023-12-20T12:46:46;2.88;;;0.85;;
64873;SDS011;51367;45.204;38.576;2023-12-20T12:49:12;0.77;;;0.50;;
64873;SDS011;51367;45.204;38.576;2023-12-20T12:51:38;0.70;;;0.47;;
64873;SDS011;51367;45.204;38.576;2023-12-20T12:54:04;0.40;;;0.40;;
64873;SDS011;51367;45.204;38.576;2023-12-20T12:56:30;0.65;;;0.65;;
64873;SDS011;51367;45.204;38.576;2023-12-20T12:58:56;0.57;;;0.50;;
64873;SDS011;51367;45.204;38.576;2023-12-20T13:01:22;0.25;;;0.25;;
64873;SDS011;51367;45.204;38.576;2023-12-20T13:03:48;2.20;;;0.60;;
64873;SDS011;51367;45.204;38.576;2023-12-20T13:06:14;0.40;;;0.40;;
64873;SDS011;51367;45.204;38.576;2023-12-20T13:08:40;0.73;;;0.73;;
64873;SDS011;51367;45.204;38.576;2023-12-20T13:11:07;1.77;;;0.90;;
64873;SDS011;51367;45.204;38.576;2023-12-20T13:13:33;1.33;;;0.90;;
64873;SDS011;51367;45.204;38.576;2023-12-20T13:15:58;13.27;;;1.60;;
64873;SDS011;51367;45.204;38.576;2023-12-20T13:18:26;2.78;;;1.40;;
64873;SDS011;51367;45.204;38.576;2023-12-20T13:20:52;1.90;;;1.02;;
64873;SDS011;51367;45.204;38.576;2023-12-20T13:23:18;3.65;;;1.40;;
64873;SDS011;51367;45.204;38.576;2023-12-20T13:25:44;16.90;;;1.60;;
64873;SDS011;51367;45.204;38.576;2023-12-20T13:28:13;1.02;;;0.65;;
64873;SDS011;51367;45.204;38.576;2023-12-20T13:30:39;0.68;;;0.47;;
64873;SDS011;51367;45.204;38.576;2023-12-20T13:33:05;1.45;;;0.60;;
64873;SDS011;51367;45.204;38.576;2023-12-20T13:35:33;3.03;;;0.88;;
64873;SDS011;51367;45.204;38.576;2023-12-20T13:38:00;1.35;;;0.80;;
64873;SDS011;51367;45.204;38.576;2023-12-20T13:40:26;2.63;;;0.73;;
64873;SDS011;51367;45.204;38.576;2023-12-20T13:42:53;0.95;;;0.68;;
64873;SDS011;51367;45.204;38.576;2023-12-20T13:45:20;0.93;;;0.75;;
64873;SDS011;51367;45.204;38.576;2023-12-20T13:47:46;0.65;;;0.65;;
64873;SDS011;51367;45.204;38.576;2023-12-20T13:50:12;9.77;;;1.38;;
64873;SDS011;51367;45.204;38.576;2023-12-20T13:52:38;2.58;;;0.68;;
64873;SDS011;51367;45.204;38.576;2023-12-20T13:55:04;0.43;;;0.43;;
64873;SDS011;51367;45.204;38.576;2023-12-20T13:57:33;6.53;;;0.77;;
64873;SDS011;51367;45.204;38.576;2023-12-20T13:59:59;1.38;;;0.60;;
64873;SDS011;51367;45.204;38.576;2023-12-20T14:02:25;0.75;;;0.75;;
64873;SDS011;51367;45.204;38.576;2023-12-20T14:04:52;1.08;;;0.73;;
64873;SDS011;51367;45.204;38.576;2023-12-20T14:07:18;3.28;;;1.05;;
64873;SDS011;51367;45.204;38.576;2023-12-20T14:09:44;1.60;;;0.77;;
64873;SDS011;51367;45.204;38.576;2023-12-20T14:12:13;1.05;;;0.88;;
64873;SDS011;51367;45.204;38.576;2023-12-20T14:14:40;1.42;;;1.33;;
64873;SDS011;51367;45.204;38.576;2023-12-20T14:17:06;1.58;;;1.48;;
64873;SDS011;51367;45.204;38.576;2023-12-20T14:19:32;5.70;;;2.17;;
64873;SDS011;51367;45.204;38.576;2023-12-20T14:21:59;2.08;;;1.80;;
64873;SDS011;51367;45.204;38.576;2023-12-20T14:24:28;2.50;;;1.48;;